<?xml version='1.0' encoding='UTF-8'?><gpx version="1.1" creator="JPX - https://github.com/jenetics/jpx" xmlns="http://www.topografix.com/GPX/1/1"><trk><trkseg><trkpt lat="41.2016833" lon="15.0177317"><ele>423.0</ele><time>2026-04-11T14:16:14.798Z</time></trkpt><trkpt lat="41.2017667" lon="15.0177433"><ele>423.0</ele><time>2026-04-11T14:16:18.798Z</time></trkpt><trkpt lat="41.2018367" lon="15.0177467"><ele>423.0</ele><time>2026-04-11T14:16:21.798Z</time></trkpt><trkpt lat="41.2019083" lon="15.0177667"><ele>423.0</ele><time>2026-04-11T14:16:24.798Z</time></trkpt><trkpt lat="41.2019767" lon="15.0177717"><ele>423.0</ele><time>2026-04-11T14:16:27.798Z</time></trkpt><trkpt lat="41.20205" lon="15.0177617"><ele>423.0</ele><time>2026-04-11T14:16:30.798Z</time></trkpt><trkpt lat="41.2021233" lon="15.0177733"><ele>423.0</ele><time>2026-04-11T14:16:33.798Z</time></trkpt><trkpt lat="41.20217" lon="15.0178333"><ele>423.0</ele><time>2026-04-11T14:16:36.798Z</time></trkpt><trkpt lat="41.2021633" lon="15.0179617"><ele>423.0</ele><time>2026-04-11T14:16:39.799Z</time></trkpt><trkpt lat="41.2021567" lon="15.018055"><ele>423.0</ele><time>2026-04-11T14:16:41.798Z</time></trkpt><trkpt lat="41.202135" lon="15.0181383"><ele>423.0</ele><time>2026-04-11T14:16:43.798Z</time></trkpt><trkpt lat="41.2020983" lon="15.0182467"><ele>423.0</ele><time>2026-04-11T14:16:45.798Z</time></trkpt><trkpt lat="41.2020633" lon="15.0183417"><ele>423.0</ele><time>2026-04-11T14:16:47.798Z</time></trkpt><trkpt lat="41.2020283" lon="15.0184233"><ele>422.5</ele><time>2026-04-11T14:16:49.799Z</time></trkpt><trkpt lat="41.202005" lon="15.01854"><ele>422.0</ele><time>2026-04-11T14:16:52.798Z</time></trkpt><trkpt lat="41.202005" lon="15.0186417"><ele>421.5</ele><time>2026-04-11T14:16:54.799Z</time></trkpt><trkpt lat="41.202005" lon="15.0187367"><ele>421.0</ele><time>2026-04-11T14:16:56.799Z</time></trkpt><trkpt lat="41.2019383" lon="15.01882"><ele>420.5</ele><time>2026-04-11T14:16:59.799Z</time></trkpt><trkpt lat="41.2018867" lon="15.0189117"><ele>420.0</ele><time>2026-04-11T14:17:02.798Z</time></trkpt><trkpt lat="41.2018067" lon="15.0189417"><ele>420.0</ele><time>2026-04-11T14:17:05.799Z</time></trkpt><trkpt lat="41.2018217" lon="15.01882"><ele>420.0</ele><time>2026-04-11T14:17:08.798Z</time></trkpt><trkpt lat="41.2018467" lon="15.018715"><ele>420.0</ele><time>2026-04-11T14:17:10.799Z</time></trkpt><trkpt lat="41.2018633" lon="15.0185983"><ele>420.0</ele><time>2026-04-11T14:17:12.799Z</time></trkpt><trkpt lat="41.201885" lon="15.0184967"><ele>420.0</ele><time>2026-04-11T14:17:14.798Z</time></trkpt><trkpt lat="41.2018983" lon="15.0184117"><ele>420.0</ele><time>2026-04-11T14:17:16.798Z</time></trkpt><trkpt lat="41.20191" lon="15.018325"><ele>420.5</ele><time>2026-04-11T14:17:18.799Z</time></trkpt><trkpt lat="41.2019333" lon="15.01821"><ele>421.0</ele><time>2026-04-11T14:17:21.799Z</time></trkpt><trkpt lat="41.201965" lon="15.0181033"><ele>421.5</ele><time>2026-04-11T14:17:24.798Z</time></trkpt><trkpt lat="41.2019167" lon="15.0180183"><ele>422.0</ele><time>2026-04-11T14:17:27.798Z</time></trkpt><trkpt lat="41.2018467" lon="15.0179633"><ele>422.5</ele><time>2026-04-11T14:17:30.798Z</time></trkpt><trkpt lat="41.2017667" lon="15.0179917"><ele>423.0</ele><time>2026-04-11T14:17:34.798Z</time></trkpt><trkpt lat="41.2017167" lon="15.01808"><ele>423.0</ele><time>2026-04-11T14:17:37.798Z</time></trkpt><trkpt lat="41.2016567" lon="15.018135"><ele>423.0</ele><time>2026-04-11T14:17:39.798Z</time></trkpt><trkpt lat="41.2016117" lon="15.0182133"><ele>423.0</ele><time>2026-04-11T14:17:42.798Z</time></trkpt><trkpt lat="41.2016317" lon="15.018305"><ele>423.0</ele><time>2026-04-11T14:17:45.798Z</time></trkpt><trkpt lat="41.2016783" lon="15.0183933"><ele>423.0</ele><time>2026-04-11T14:17:48.798Z</time></trkpt><trkpt lat="41.2017017" lon="15.018475"><ele>423.0</ele><time>2026-04-11T14:17:51.798Z</time></trkpt><trkpt lat="41.2016883" lon="15.0185867"><ele>422.5</ele><time>2026-04-11T14:17:54.798Z</time></trkpt><trkpt lat="41.2016767" lon="15.0186767"><ele>422.0</ele><time>2026-04-11T14:17:56.798Z</time></trkpt><trkpt lat="41.2016583" lon="15.01878"><ele>421.5</ele><time>2026-04-11T14:17:59.798Z</time></trkpt><trkpt lat="41.2016317" lon="15.0188633"><ele>421.0</ele><time>2026-04-11T14:18:02.799Z</time></trkpt><trkpt lat="41.20155" lon="15.018915"><ele>420.5</ele><time>2026-04-11T14:18:05.798Z</time></trkpt><trkpt lat="41.2014867" lon="15.0189433"><ele>420.0</ele><time>2026-04-11T14:18:07.799Z</time></trkpt><trkpt lat="41.2014167" lon="15.0189833"><ele>423.0</ele><time>2026-04-11T14:18:09.797Z</time></trkpt><trkpt lat="41.201355" lon="15.019035"><ele>426.0</ele><time>2026-04-11T14:18:11.797Z</time></trkpt><trkpt lat="41.20128" lon="15.0190717"><ele>429.0</ele><time>2026-04-11T14:18:13.796Z</time></trkpt><trkpt lat="41.2011967" lon="15.0191017"><ele>432.0</ele><time>2026-04-11T14:18:16.797Z</time></trkpt><trkpt lat="41.2011267" lon="15.0190817"><ele>435.0</ele><time>2026-04-11T14:18:19.798Z</time></trkpt><trkpt lat="41.2010683" lon="15.019035"><ele>438.0</ele><time>2026-04-11T14:18:21.797Z</time></trkpt><trkpt lat="41.2009833" lon="15.01899"><ele>438.0</ele><time>2026-04-11T14:18:24.797Z</time></trkpt><trkpt lat="41.2009317" lon="15.0189367"><ele>438.0</ele><time>2026-04-11T14:18:27.798Z</time></trkpt><trkpt lat="41.2008783" lon="15.0188867"><ele>438.0</ele><time>2026-04-11T14:18:30.798Z</time></trkpt><trkpt lat="41.200815" lon="15.0188733"><ele>438.0</ele><time>2026-04-11T14:18:33.797Z</time></trkpt><trkpt lat="41.2007567" lon="15.0189167"><ele>438.0</ele><time>2026-04-11T14:18:44.797Z</time></trkpt><trkpt lat="41.2006983" lon="15.0189817"><ele>438.0</ele><time>2026-04-11T14:18:49.797Z</time></trkpt><trkpt lat="41.200635" lon="15.0190267"><ele>438.0</ele><time>2026-04-11T14:18:54.797Z</time></trkpt><trkpt lat="41.200565" lon="15.0190533"><ele>441.0</ele><time>2026-04-11T14:18:59.797Z</time></trkpt><trkpt lat="41.2005017" lon="15.0190967"><ele>444.0</ele><time>2026-04-11T14:19:04.798Z</time></trkpt><trkpt lat="41.2004367" lon="15.0191367"><ele>447.0</ele><time>2026-04-11T14:19:09.797Z</time></trkpt><trkpt lat="41.2003683" lon="15.0191833"><ele>450.0</ele><time>2026-04-11T14:19:13.798Z</time></trkpt><trkpt lat="41.2003083" lon="15.0192567"><ele>453.0</ele><time>2026-04-11T14:19:17.798Z</time></trkpt><trkpt lat="41.2002317" lon="15.0192917"><ele>456.0</ele><time>2026-04-11T14:19:20.798Z</time></trkpt><trkpt lat="41.2001583" lon="15.0193483"><ele>457.1666666666667</ele><time>2026-04-11T14:19:23.798Z</time></trkpt><trkpt lat="41.2000783" lon="15.0193867"><ele>458.33333333333337</ele><time>2026-04-11T14:19:26.797Z</time></trkpt><trkpt lat="41.2000117" lon="15.01943"><ele>459.5</ele><time>2026-04-11T14:19:29.797Z</time></trkpt><trkpt lat="41.1999433" lon="15.0195067"><ele>460.6666666666667</ele><time>2026-04-11T14:19:32.797Z</time></trkpt><trkpt lat="41.199865" lon="15.0195683"><ele>461.83333333333337</ele><time>2026-04-11T14:19:35.797Z</time></trkpt><trkpt lat="41.1997867" lon="15.0195917"><ele>463.0</ele><time>2026-04-11T14:19:38.797Z</time></trkpt><trkpt lat="41.19972" lon="15.0195317"><ele>465.33333333333337</ele><time>2026-04-11T14:19:41.797Z</time></trkpt><trkpt lat="41.1996483" lon="15.0194567"><ele>467.6666666666667</ele><time>2026-04-11T14:19:44.798Z</time></trkpt><trkpt lat="41.1995867" lon="15.0194"><ele>470.0</ele><time>2026-04-11T14:19:47.798Z</time></trkpt><trkpt lat="41.199525" lon="15.0193283"><ele>472.33333333333337</ele><time>2026-04-11T14:19:50.798Z</time></trkpt><trkpt lat="41.199465" lon="15.019275"><ele>474.6666666666667</ele><time>2026-04-11T14:19:53.797Z</time></trkpt><trkpt lat="41.1993983" lon="15.0192167"><ele>477.0</ele><time>2026-04-11T14:19:57.798Z</time></trkpt><trkpt lat="41.1993317" lon="15.01916"><ele>475.0</ele><time>2026-04-11T14:20:00.797Z</time></trkpt><trkpt lat="41.1992767" lon="15.0190867"><ele>473.0</ele><time>2026-04-11T14:20:03.797Z</time></trkpt><trkpt lat="41.1992267" lon="15.01901"><ele>471.0</ele><time>2026-04-11T14:20:06.797Z</time></trkpt><trkpt lat="41.199235" lon="15.0189017"><ele>469.0</ele><time>2026-04-11T14:20:10.797Z</time></trkpt><trkpt lat="41.1993" lon="15.01893"><ele>467.0</ele><time>2026-04-11T14:20:16.797Z</time></trkpt><trkpt lat="41.19935" lon="15.019"><ele>465.0</ele><time>2026-04-11T14:20:20.797Z</time></trkpt><trkpt lat="41.19941" lon="15.0190633"><ele>465.0</ele><time>2026-04-11T14:20:24.797Z</time></trkpt><trkpt lat="41.1994617" lon="15.0191217"><ele>465.0</ele><time>2026-04-11T14:20:28.798Z</time></trkpt><trkpt lat="41.1995333" lon="15.0191717"><ele>465.0</ele><time>2026-04-11T14:20:33.797Z</time></trkpt><trkpt lat="41.1996033" lon="15.0192233"><ele>465.0</ele><time>2026-04-11T14:20:38.797Z</time></trkpt><trkpt lat="41.199665" lon="15.0192483"><ele>465.0</ele><time>2026-04-11T14:20:41.797Z</time></trkpt><trkpt lat="41.199745" lon="15.019285"><ele>465.0</ele><time>2026-04-11T14:20:44.797Z</time></trkpt><trkpt lat="41.1998133" lon="15.0192883"><ele>465.0</ele><time>2026-04-11T14:20:47.798Z</time></trkpt><trkpt lat="41.1998967" lon="15.01927"><ele>464.6666666666667</ele><time>2026-04-11T14:20:50.797Z</time></trkpt><trkpt lat="41.1999833" lon="15.01925"><ele>464.33333333333337</ele><time>2026-04-11T14:20:53.797Z</time></trkpt><trkpt lat="41.2000617" lon="15.0192383"><ele>464.0</ele><time>2026-04-11T14:20:56.797Z</time></trkpt><trkpt lat="41.20014" lon="15.0191983"><ele>463.6666666666667</ele><time>2026-04-11T14:20:59.797Z</time></trkpt><trkpt lat="41.2002" lon="15.0191533"><ele>463.33333333333337</ele><time>2026-04-11T14:21:02.798Z</time></trkpt><trkpt lat="41.2002767" lon="15.019105"><ele>463.0</ele><time>2026-04-11T14:21:05.797Z</time></trkpt><trkpt lat="41.20035" lon="15.01905"><ele>462.0</ele><time>2026-04-11T14:21:08.798Z</time></trkpt><trkpt lat="41.2004167" lon="15.019005"><ele>460.99999999999994</ele><time>2026-04-11T14:21:12.797Z</time></trkpt><trkpt lat="41.2004867" lon="15.0189583"><ele>460.0</ele><time>2026-04-11T14:21:16.797Z</time></trkpt><trkpt lat="41.2005483" lon="15.0189083"><ele>459.0</ele><time>2026-04-11T14:21:19.797Z</time></trkpt><trkpt lat="41.20061" lon="15.018855"><ele>457.99999999999994</ele><time>2026-04-11T14:21:22.797Z</time></trkpt><trkpt lat="41.200665" lon="15.0188133"><ele>457.0</ele><time>2026-04-11T14:21:26.797Z</time></trkpt><trkpt lat="41.20073" lon="15.0187717"><ele>456.0</ele><time>2026-04-11T14:21:30.797Z</time></trkpt><trkpt lat="41.2008" lon="15.0187217"><ele>453.0</ele><time>2026-04-11T14:21:35.797Z</time></trkpt><trkpt lat="41.2008667" lon="15.0187017"><ele>450.0</ele><time>2026-04-11T14:21:38.797Z</time></trkpt><trkpt lat="41.2009383" lon="15.0186717"><ele>447.0</ele><time>2026-04-11T14:21:42.797Z</time></trkpt><trkpt lat="41.2010083" lon="15.0186583"><ele>444.0</ele><time>2026-04-11T14:21:45.798Z</time></trkpt><trkpt lat="41.201095" lon="15.0186583"><ele>441.0</ele><time>2026-04-11T14:21:48.797Z</time></trkpt><trkpt lat="41.201175" lon="15.01865"><ele>438.0</ele><time>2026-04-11T14:21:51.798Z</time></trkpt><trkpt lat="41.20126" lon="15.018635"><ele>438.0</ele><time>2026-04-11T14:21:54.797Z</time></trkpt><trkpt lat="41.2013467" lon="15.0186067"><ele>438.0</ele><time>2026-04-11T14:21:57.798Z</time></trkpt><trkpt lat="41.2014133" lon="15.0185933"><ele>438.0</ele><time>2026-04-11T14:21:59.798Z</time></trkpt><trkpt lat="41.201485" lon="15.0185833"><ele>438.0</ele><time>2026-04-11T14:22:02.797Z</time></trkpt><trkpt lat="41.20155" lon="15.01856"><ele>438.0</ele><time>2026-04-11T14:22:05.797Z</time></trkpt><trkpt lat="41.2016017" lon="15.0184783"><ele>438.0</ele><time>2026-04-11T14:22:08.797Z</time></trkpt><trkpt lat="41.20158" lon="15.0183917"><ele>438.0</ele><time>2026-04-11T14:22:11.797Z</time></trkpt><trkpt lat="41.201515" lon="15.018325"><ele>438.0</ele><time>2026-04-11T14:22:14.797Z</time></trkpt><trkpt lat="41.2014333" lon="15.01833"><ele>438.0</ele><time>2026-04-11T14:22:17.797Z</time></trkpt><trkpt lat="41.20137" lon="15.0183617"><ele>438.0</ele><time>2026-04-11T14:22:19.797Z</time></trkpt><trkpt lat="41.2012767" lon="15.0184067"><ele>438.0</ele><time>2026-04-11T14:22:22.797Z</time></trkpt><trkpt lat="41.2012133" lon="15.0184283"><ele>438.0</ele><time>2026-04-11T14:22:24.796Z</time></trkpt><trkpt lat="41.201145" lon="15.0184633"><ele>438.0</ele><time>2026-04-11T14:22:26.796Z</time></trkpt><trkpt lat="41.201065" lon="15.018485"><ele>438.0</ele><time>2026-04-11T14:22:28.797Z</time></trkpt><trkpt lat="41.2009783" lon="15.0185133"><ele>438.0</ele><time>2026-04-11T14:22:30.796Z</time></trkpt><trkpt lat="41.2009033" lon="15.0185367"><ele>438.0</ele><time>2026-04-11T14:22:32.796Z</time></trkpt><trkpt lat="41.2008333" lon="15.018565"><ele>438.0</ele><time>2026-04-11T14:22:35.796Z</time></trkpt><trkpt lat="41.20074" lon="15.0186083"><ele>438.0</ele><time>2026-04-11T14:22:38.796Z</time></trkpt><trkpt lat="41.2006617" lon="15.018645"><ele>438.0</ele><time>2026-04-11T14:22:40.796Z</time></trkpt><trkpt lat="41.2005967" lon="15.018685"><ele>440.57142857142856</ele><time>2026-04-11T14:22:42.796Z</time></trkpt><trkpt lat="41.2005383" lon="15.01873"><ele>443.1428571428571</ele><time>2026-04-11T14:22:44.796Z</time></trkpt><trkpt lat="41.2004683" lon="15.018785"><ele>445.71428571428567</ele><time>2026-04-11T14:22:47.797Z</time></trkpt><trkpt lat="41.2003917" lon="15.0188183"><ele>448.2857142857143</ele><time>2026-04-11T14:22:50.796Z</time></trkpt><trkpt lat="41.2003317" lon="15.018855"><ele>450.8571428571428</ele><time>2026-04-11T14:22:52.796Z</time></trkpt><trkpt lat="41.2002683" lon="15.0188933"><ele>453.4285714285714</ele><time>2026-04-11T14:22:54.797Z</time></trkpt><trkpt lat="41.20019" lon="15.018935"><ele>456.0</ele><time>2026-04-11T14:22:56.797Z</time></trkpt><trkpt lat="41.2001217" lon="15.01899"><ele>456.0</ele><time>2026-04-11T14:22:58.796Z</time></trkpt><trkpt lat="41.20005" lon="15.0190383"><ele>456.0</ele><time>2026-04-11T14:23:00.796Z</time></trkpt><trkpt lat="41.1999933" lon="15.0190833"><ele>456.0</ele><time>2026-04-11T14:23:02.796Z</time></trkpt><trkpt lat="41.1999" lon="15.01909"><ele>456.0</ele><time>2026-04-11T14:23:05.797Z</time></trkpt><trkpt lat="41.1998217" lon="15.0190583"><ele>456.0</ele><time>2026-04-11T14:23:07.796Z</time></trkpt><trkpt lat="41.199745" lon="15.0190233"><ele>456.0</ele><time>2026-04-11T14:23:09.796Z</time></trkpt><trkpt lat="41.1996667" lon="15.0189867"><ele>457.5</ele><time>2026-04-11T14:23:11.796Z</time></trkpt><trkpt lat="41.1995933" lon="15.0189467"><ele>459.0</ele><time>2026-04-11T14:23:13.796Z</time></trkpt><trkpt lat="41.1995233" lon="15.01892"><ele>460.5</ele><time>2026-04-11T14:23:15.796Z</time></trkpt><trkpt lat="41.1994317" lon="15.018875"><ele>462.0</ele><time>2026-04-11T14:23:18.796Z</time></trkpt><trkpt lat="41.1993683" lon="15.0187917"><ele>463.5</ele><time>2026-04-11T14:23:21.796Z</time></trkpt><trkpt lat="41.199345" lon="15.0186867"><ele>465.0</ele><time>2026-04-11T14:23:24.796Z</time></trkpt><trkpt lat="41.1993733" lon="15.018605"><ele>465.0</ele><time>2026-04-11T14:23:28.796Z</time></trkpt><trkpt lat="41.19943" lon="15.0186417"><ele>465.0</ele><time>2026-04-11T14:23:32.796Z</time></trkpt><trkpt lat="41.1994783" lon="15.0186967"><ele>465.0</ele><time>2026-04-11T14:23:36.796Z</time></trkpt><trkpt lat="41.19955" lon="15.0187383"><ele>465.0</ele><time>2026-04-11T14:23:40.796Z</time></trkpt><trkpt lat="41.1996233" lon="15.0187833"><ele>465.0</ele><time>2026-04-11T14:23:43.796Z</time></trkpt><trkpt lat="41.1996933" lon="15.0188233"><ele>465.0</ele><time>2026-04-11T14:23:46.796Z</time></trkpt><trkpt lat="41.1997717" lon="15.0188617"><ele>465.0</ele><time>2026-04-11T14:23:49.797Z</time></trkpt><trkpt lat="41.199845" lon="15.01889"><ele>465.0</ele><time>2026-04-11T14:23:52.796Z</time></trkpt><trkpt lat="41.1999283" lon="15.0189183"><ele>465.0</ele><time>2026-04-11T14:23:55.796Z</time></trkpt><trkpt lat="41.2000017" lon="15.0188917"><ele>465.0</ele><time>2026-04-11T14:23:59.796Z</time></trkpt><trkpt lat="41.1999767" lon="15.01879"><ele>465.0</ele><time>2026-04-11T14:24:02.796Z</time></trkpt><trkpt lat="41.1999183" lon="15.01871"><ele>465.0</ele><time>2026-04-11T14:24:05.797Z</time></trkpt><trkpt lat="41.1998467" lon="15.0186767"><ele>465.0</ele><time>2026-04-11T14:24:08.796Z</time></trkpt><trkpt lat="41.19977" lon="15.018655"><ele>465.0</ele><time>2026-04-11T14:24:10.796Z</time></trkpt><trkpt lat="41.1996933" lon="15.0186317"><ele>465.0</ele><time>2026-04-11T14:24:12.796Z</time></trkpt><trkpt lat="41.199625" lon="15.01862"><ele>465.0</ele><time>2026-04-11T14:24:14.796Z</time></trkpt><trkpt lat="41.1995617" lon="15.018565"><ele>465.0</ele><time>2026-04-11T14:24:17.797Z</time></trkpt><trkpt lat="41.1996" lon="15.01849"><ele>465.0</ele><time>2026-04-11T14:24:20.796Z</time></trkpt><trkpt lat="41.1996867" lon="15.0185033"><ele>465.0</ele><time>2026-04-11T14:24:23.797Z</time></trkpt><trkpt lat="41.1997567" lon="15.01851"><ele>465.0</ele><time>2026-04-11T14:24:26.796Z</time></trkpt><trkpt lat="41.1998333" lon="15.0185"><ele>465.0</ele><time>2026-04-11T14:24:29.796Z</time></trkpt><trkpt lat="41.1999033" lon="15.0185033"><ele>456.0</ele><time>2026-04-11T14:24:32.796Z</time></trkpt><trkpt lat="41.1999617" lon="15.0185533"><ele>456.0</ele><time>2026-04-11T14:24:35.796Z</time></trkpt><trkpt lat="41.2" lon="15.0186383"><ele>456.0</ele><time>2026-04-11T14:24:38.796Z</time></trkpt><trkpt lat="41.200075" lon="15.0186783"><ele>456.0</ele><time>2026-04-11T14:24:42.796Z</time></trkpt><trkpt lat="41.200135" lon="15.0186283"><ele>456.0</ele><time>2026-04-11T14:24:45.796Z</time></trkpt><trkpt lat="41.2002" lon="15.0185733"><ele>456.0</ele><time>2026-04-11T14:24:48.796Z</time></trkpt></trkseg><trkseg><trkpt lat="41.20032" lon="15.018475"><ele>456.0</ele><time>2026-04-11T14:48:15.796Z</time></trkpt><trkpt lat="41.2003717" lon="15.0183983"><ele>455.99999999999994</ele><time>2026-04-11T14:48:21.796Z</time></trkpt><trkpt lat="41.2004083" lon="15.0183217"><ele>456.0</ele><time>2026-04-11T14:48:24.795Z</time></trkpt><trkpt lat="41.2004383" lon="15.0182283"><ele>456.0</ele><time>2026-04-11T14:48:27.795Z</time></trkpt><trkpt lat="41.200455" lon="15.0181317"><ele>455.99999999999994</ele><time>2026-04-11T14:48:30.796Z</time></trkpt><trkpt lat="41.2004883" lon="15.01805"><ele>456.0</ele><time>2026-04-11T14:48:33.795Z</time></trkpt><trkpt lat="41.2005417" lon="15.0180033"><ele>456.0</ele><time>2026-04-11T14:48:36.795Z</time></trkpt><trkpt lat="41.2005767" lon="15.0180733"><ele>456.0</ele><time>2026-04-11T14:48:40.795Z</time></trkpt><trkpt lat="41.2005667" lon="15.0181617"><ele>456.0</ele><time>2026-04-11T14:48:43.796Z</time></trkpt><trkpt lat="41.2005383" lon="15.01827"><ele>456.0</ele><time>2026-04-11T14:48:46.795Z</time></trkpt><trkpt lat="41.200495" lon="15.018355"><ele>456.0</ele><time>2026-04-11T14:48:48.795Z</time></trkpt><trkpt lat="41.2004283" lon="15.018435"><ele>456.0</ele><time>2026-04-11T14:48:50.795Z</time></trkpt><trkpt lat="41.2003583" lon="15.0185233"><ele>456.0</ele><time>2026-04-11T14:48:52.796Z</time></trkpt><trkpt lat="41.2003133" lon="15.01861"><ele>456.0</ele><time>2026-04-11T14:48:54.795Z</time></trkpt><trkpt lat="41.200295" lon="15.0186967"><ele>455.99999999999994</ele><time>2026-04-11T14:48:56.796Z</time></trkpt><trkpt lat="41.2003533" lon="15.018745"><ele>456.0</ele><time>2026-04-11T14:48:59.795Z</time></trkpt><trkpt lat="41.2004167" lon="15.0187033"><ele>456.0</ele><time>2026-04-11T14:49:01.795Z</time></trkpt><trkpt lat="41.200475" lon="15.0186183"><ele>455.99999999999994</ele><time>2026-04-11T14:49:03.795Z</time></trkpt><trkpt lat="41.20052" lon="15.0185433"><ele>456.0</ele><time>2026-04-11T14:49:05.795Z</time></trkpt><trkpt lat="41.2005717" lon="15.0184567"><ele>456.0</ele><time>2026-04-11T14:49:07.795Z</time></trkpt><trkpt lat="41.2006217" lon="15.0183817"><ele>454.3333333333333</ele><time>2026-04-11T14:49:09.796Z</time></trkpt><trkpt lat="41.20066" lon="15.0182717"><ele>452.66666666666663</ele><time>2026-04-11T14:49:12.795Z</time></trkpt><trkpt lat="41.2006817" lon="15.0181883"><ele>451.0</ele><time>2026-04-11T14:49:14.795Z</time></trkpt><trkpt lat="41.2006917" lon="15.018105"><ele>449.3333333333333</ele><time>2026-04-11T14:49:17.796Z</time></trkpt><trkpt lat="41.200675" lon="15.0179983"><ele>447.66666666666663</ele><time>2026-04-11T14:49:20.795Z</time></trkpt><trkpt lat="41.2006317" lon="15.0179033"><ele>446.0</ele><time>2026-04-11T14:49:23.796Z</time></trkpt><trkpt lat="41.2006783" lon="15.0178317"><ele>444.7142857142857</ele><time>2026-04-11T14:49:26.795Z</time></trkpt><trkpt lat="41.2007267" lon="15.0178917"><ele>443.42857142857144</ele><time>2026-04-11T14:49:30.795Z</time></trkpt><trkpt lat="41.2007717" lon="15.01797"><ele>442.1428571428571</ele><time>2026-04-11T14:49:35.795Z</time></trkpt><trkpt lat="41.2008217" lon="15.0180283"><ele>440.8571428571429</ele><time>2026-04-11T14:49:40.795Z</time></trkpt><trkpt lat="41.20076" lon="15.0180917"><ele>439.5714285714286</ele><time>2026-04-11T14:49:46.795Z</time></trkpt><trkpt lat="41.2007183" lon="15.0181617"><ele>438.2857142857143</ele><time>2026-04-11T14:49:48.796Z</time></trkpt><trkpt lat="41.200675" lon="15.018245"><ele>437.0</ele><time>2026-04-11T14:49:50.796Z</time></trkpt><trkpt lat="41.200645" lon="15.0183467"><ele>437.1428571428571</ele><time>2026-04-11T14:49:52.795Z</time></trkpt><trkpt lat="41.200635" lon="15.01844"><ele>437.28571428571433</ele><time>2026-04-11T14:49:54.796Z</time></trkpt><trkpt lat="41.2006917" lon="15.018505"><ele>437.42857142857144</ele><time>2026-04-11T14:49:57.795Z</time></trkpt><trkpt lat="41.200755" lon="15.0184833"><ele>437.57142857142856</ele><time>2026-04-11T14:49:59.795Z</time></trkpt><trkpt lat="41.2008183" lon="15.018445"><ele>437.71428571428567</ele><time>2026-04-11T14:50:01.795Z</time></trkpt><trkpt lat="41.2008883" lon="15.0184067"><ele>437.8571428571429</ele><time>2026-04-11T14:50:03.795Z</time></trkpt><trkpt lat="41.20096" lon="15.0183567"><ele>438.0</ele><time>2026-04-11T14:50:05.795Z</time></trkpt><trkpt lat="41.2010333" lon="15.018325"><ele>437.8333333333333</ele><time>2026-04-11T14:50:07.795Z</time></trkpt><trkpt lat="41.201105" lon="15.0183017"><ele>437.66666666666663</ele><time>2026-04-11T14:50:09.795Z</time></trkpt><trkpt lat="41.201185" lon="15.01828"><ele>437.5</ele><time>2026-04-11T14:50:11.795Z</time></trkpt><trkpt lat="41.2012633" lon="15.0182683"><ele>437.3333333333333</ele><time>2026-04-11T14:50:14.795Z</time></trkpt><trkpt lat="41.2013483" lon="15.0182483"><ele>437.16666666666663</ele><time>2026-04-11T14:50:16.796Z</time></trkpt><trkpt lat="41.2014233" lon="15.018215"><ele>437.0</ele><time>2026-04-11T14:50:18.796Z</time></trkpt><trkpt lat="41.2014883" lon="15.0181767"><ele>437.0</ele><time>2026-04-11T14:50:20.795Z</time></trkpt><trkpt lat="41.2015133" lon="15.0180967"><ele>437.0</ele><time>2026-04-11T14:50:25.796Z</time></trkpt><trkpt lat="41.2014567" lon="15.0180367"><ele>437.0</ele><time>2026-04-11T14:50:28.795Z</time></trkpt><trkpt lat="41.2013933" lon="15.0180317"><ele>437.0</ele><time>2026-04-11T14:50:30.796Z</time></trkpt><trkpt lat="41.2013167" lon="15.01807"><ele>437.0</ele><time>2026-04-11T14:50:32.795Z</time></trkpt><trkpt lat="41.201245" lon="15.0181"><ele>437.0</ele><time>2026-04-11T14:50:34.796Z</time></trkpt><trkpt lat="41.20116" lon="15.01813"><ele>437.0</ele><time>2026-04-11T14:50:36.796Z</time></trkpt><trkpt lat="41.201075" lon="15.0181583"><ele>436.99999999999994</ele><time>2026-04-11T14:50:38.795Z</time></trkpt><trkpt lat="41.2010133" lon="15.018195"><ele>437.0</ele><time>2026-04-11T14:50:39.795Z</time></trkpt><trkpt lat="41.200925" lon="15.0182417"><ele>437.0</ele><time>2026-04-11T14:50:41.795Z</time></trkpt><trkpt lat="41.2008833" lon="15.0181333"><ele>437.0</ele><time>2026-04-11T14:50:44.795Z</time></trkpt><trkpt lat="41.20088" lon="15.018045"><ele>436.99999999999994</ele><time>2026-04-11T14:50:46.795Z</time></trkpt><trkpt lat="41.2009067" lon="15.0179617"><ele>437.0</ele><time>2026-04-11T14:50:49.795Z</time></trkpt><trkpt lat="41.2009133" lon="15.0178583"><ele>436.99999999999994</ele><time>2026-04-11T14:50:54.795Z</time></trkpt><trkpt lat="41.20086" lon="15.0177917"><ele>437.0</ele><time>2026-04-11T14:50:58.795Z</time></trkpt><trkpt lat="41.20079" lon="15.01772"><ele>437.0</ele><time>2026-04-11T14:51:01.795Z</time></trkpt><trkpt lat="41.2007433" lon="15.017635"><ele>437.0</ele><time>2026-04-11T14:51:04.796Z</time></trkpt><trkpt lat="41.2007267" lon="15.0175417"><ele>436.99999999999994</ele><time>2026-04-11T14:51:07.796Z</time></trkpt><trkpt lat="41.200765" lon="15.0174467"><ele>437.0</ele><time>2026-04-11T14:51:10.796Z</time></trkpt><trkpt lat="41.2008517" lon="15.01747"><ele>437.0</ele><time>2026-04-11T14:51:13.795Z</time></trkpt><trkpt lat="41.2008917" lon="15.0175433"><ele>437.0</ele><time>2026-04-11T14:51:15.795Z</time></trkpt><trkpt lat="41.20092" lon="15.0176267"><ele>437.0</ele><time>2026-04-11T14:51:18.796Z</time></trkpt><trkpt lat="41.2009467" lon="15.0177033"><ele>437.0</ele><time>2026-04-11T14:51:21.796Z</time></trkpt><trkpt lat="41.20098" lon="15.0177767"><ele>437.0</ele><time>2026-04-11T14:51:24.795Z</time></trkpt><trkpt lat="41.20102" lon="15.017855"><ele>437.0</ele><time>2026-04-11T14:51:26.796Z</time></trkpt><trkpt lat="41.2010567" lon="15.017945"><ele>437.0</ele><time>2026-04-11T14:51:29.795Z</time></trkpt><trkpt lat="41.2010883" lon="15.0180433"><ele>436.99999999999994</ele><time>2026-04-11T14:51:32.795Z</time></trkpt><trkpt lat="41.2011517" lon="15.0180217"><ele>437.0</ele><time>2026-04-11T14:51:35.795Z</time></trkpt><trkpt lat="41.2011783" lon="15.0179317"><ele>437.0</ele><time>2026-04-11T14:51:38.796Z</time></trkpt><trkpt lat="41.2011833" lon="15.0178117"><ele>437.0</ele><time>2026-04-11T14:51:41.795Z</time></trkpt><trkpt lat="41.2011717" lon="15.017725"><ele>436.99999999999994</ele><time>2026-04-11T14:51:43.795Z</time></trkpt><trkpt lat="41.201125" lon="15.0176283"><ele>437.0</ele><time>2026-04-11T14:51:46.795Z</time></trkpt><trkpt lat="41.20121" lon="15.0175167"><ele>436.99999999999994</ele><time>2026-04-11T14:52:00.794Z</time></trkpt><trkpt lat="41.2012667" lon="15.0175583"><ele>437.0</ele><time>2026-04-11T14:52:02.794Z</time></trkpt><trkpt lat="41.201325" lon="15.0177117"><ele>437.0</ele><time>2026-04-11T14:52:07.794Z</time></trkpt><trkpt lat="41.201345" lon="15.0177983"><ele>437.0</ele><time>2026-04-11T14:52:10.794Z</time></trkpt><trkpt lat="41.2013767" lon="15.0178733"><ele>436.99999999999994</ele><time>2026-04-11T14:52:13.794Z</time></trkpt><trkpt lat="41.2014317" lon="15.0179333"><ele>437.0</ele><time>2026-04-11T14:52:17.794Z</time></trkpt><trkpt lat="41.2014617" lon="15.0178417"><ele>436.99999999999994</ele><time>2026-04-11T14:52:44.794Z</time></trkpt><trkpt lat="41.201405" lon="15.0177217"><ele>437.0</ele><time>2026-04-11T14:52:57.794Z</time></trkpt><trkpt lat="41.2014083" lon="15.0175783"><ele>437.0</ele><time>2026-04-11T14:53:03.795Z</time></trkpt><trkpt lat="41.201485" lon="15.0176233"><ele>437.0</ele><time>2026-04-11T14:53:07.794Z</time></trkpt><trkpt lat="41.2015017" lon="15.017715"><ele>436.99999999999994</ele><time>2026-04-11T14:53:10.794Z</time></trkpt><trkpt lat="41.201505" lon="15.01781"><ele>437.0</ele><time>2026-04-11T14:53:13.794Z</time></trkpt><trkpt lat="41.20155" lon="15.0178967"><ele>423.0</ele><time>2026-04-11T14:53:17.794Z</time></trkpt><trkpt lat="41.20161" lon="15.0178467"><ele>423.0</ele><time>2026-04-11T14:53:24.794Z</time></trkpt></trkseg></trk></gpx>